Winterswijk, Netherlands
Current Conditions -  °F | °C
As of 2:20 PM on Tuesday 21 Oct 2014 (Local Time) from EDLV Reporting Station
Moderate Rain Moderate Rain  
Wind Chill: 55°   Ceiling: 1300
Heat Index: 55°   Visibility: 2.7mi
Dew Point: 54°   Wind: 14mph
Humidity: 94%   Direction: 200°SSW
Pressure: 29.5"   Gusts: NA
Location:  51.97°N, 6.72°E
Report Text: EDLV 211220Z 20012KT 170V230 4400 RA BKN013 13/12 Q0999
Loading
Personal Weather Stations






























Interactive Weather Map
Tropical Storm Tracking
New forecast layout! Learn more

10-Day Weather Forecast

Advertisements
Track Severe Weather on mobile